sensor_id;sensor_type;location;lat;lon;timestamp;P1;durP1;ratioP1;P2;durP2;ratioP2
68247;SDS011;55064;49.636;12.164;2024-01-16T00:00:01;10.43;;;3.60;;
68247;SDS011;55064;49.636;12.164;2024-01-16T00:02:28;8.57;;;3.55;;
68247;SDS011;55064;49.636;12.164;2024-01-16T00:04:53;9.47;;;3.43;;
68247;SDS011;55064;49.636;12.164;2024-01-16T00:07:18;10.43;;;3.27;;
68247;SDS011;55064;49.636;12.164;2024-01-16T00:09:44;10.38;;;3.47;;
68247;SDS011;55064;49.636;12.164;2024-01-16T00:12:10;9.60;;;3.60;;
68247;SDS011;55064;49.636;12.164;2024-01-16T00:14:36;9.02;;;3.35;;
68247;SDS011;55064;49.636;12.164;2024-01-16T00:17:01;12.57;;;3.00;;
68247;SDS011;55064;49.636;12.164;2024-01-16T00:19:27;10.75;;;3.53;;
68247;SDS011;55064;49.636;12.164;2024-01-16T00:21:52;9.00;;;2.80;;
68247;SDS011;55064;49.636;12.164;2024-01-16T00:24:18;7.97;;;3.00;;
68247;SDS011;55064;49.636;12.164;2024-01-16T00:26:43;8.13;;;2.87;;
68247;SDS011;55064;49.636;12.164;2024-01-16T00:29:09;9.07;;;3.00;;
68247;SDS011;55064;49.636;12.164;2024-01-16T00:31:34;9.93;;;3.17;;
68247;SDS011;55064;49.636;12.164;2024-01-16T00:34:00;9.80;;;3.33;;
68247;SDS011;55064;49.636;12.164;2024-01-16T00:36:26;9.20;;;3.33;;
68247;SDS011;55064;49.636;12.164;2024-01-16T00:38:51;7.47;;;2.70;;
68247;SDS011;55064;49.636;12.164;2024-01-16T00:41:16;8.90;;;3.07;;
68247;SDS011;55064;49.636;12.164;2024-01-16T00:43:45;8.60;;;3.13;;
68247;SDS011;55064;49.636;12.164;2024-01-16T00:46:11;10.63;;;3.10;;
68247;SDS011;55064;49.636;12.164;2024-01-16T00:48:36;12.10;;;3.33;;
68247;SDS011;55064;49.636;12.164;2024-01-16T00:51:02;9.67;;;3.17;;
68247;SDS011;55064;49.636;12.164;2024-01-16T00:53:27;8.43;;;3.37;;
68247;SDS011;55064;49.636;12.164;2024-01-16T00:55:53;9.02;;;3.25;;
68247;SDS011;55064;49.636;12.164;2024-01-16T00:58:19;10.37;;;3.90;;
68247;SDS011;55064;49.636;12.164;2024-01-16T01:00:46;9.95;;;3.30;;
68247;SDS011;55064;49.636;12.164;2024-01-16T01:03:12;9.53;;;3.07;;
68247;SDS011;55064;49.636;12.164;2024-01-16T01:05:37;8.63;;;3.10;;
68247;SDS011;55064;49.636;12.164;2024-01-16T01:08:02;9.93;;;3.30;;
68247;SDS011;55064;49.636;12.164;2024-01-16T01:10:28;7.70;;;2.80;;
68247;SDS011;55064;49.636;12.164;2024-01-16T01:12:53;9.77;;;3.10;;
68247;SDS011;55064;49.636;12.164;2024-01-16T01:15:19;11.20;;;3.00;;
68247;SDS011;55064;49.636;12.164;2024-01-16T01:17:47;11.02;;;3.10;;
68247;SDS011;55064;49.636;12.164;2024-01-16T01:20:14;7.78;;;3.00;;
68247;SDS011;55064;49.636;12.164;2024-01-16T01:22:40;10.23;;;2.92;;
68247;SDS011;55064;49.636;12.164;2024-01-16T01:25:05;13.13;;;3.00;;
68247;SDS011;55064;49.636;12.164;2024-01-16T01:27:31;9.60;;;2.72;;
68247;SDS011;55064;49.636;12.164;2024-01-16T01:29:57;10.17;;;2.93;;
68247;SDS011;55064;49.636;12.164;2024-01-16T01:32:23;8.30;;;3.10;;
68247;SDS011;55064;49.636;12.164;2024-01-16T01:34:48;10.37;;;3.30;;
68247;SDS011;55064;49.636;12.164;2024-01-16T01:37:14;11.47;;;3.50;;
68247;SDS011;55064;49.636;12.164;2024-01-16T01:39:39;7.87;;;2.70;;
68247;SDS011;55064;49.636;12.164;2024-01-16T01:42:04;6.72;;;2.08;;
68247;SDS011;55064;49.636;12.164;2024-01-16T01:44:30;6.53;;;2.33;;
68247;SDS011;55064;49.636;12.164;2024-01-16T01:46:56;9.17;;;3.00;;
68247;SDS011;55064;49.636;12.164;2024-01-16T01:49:22;7.85;;;2.90;;
68247;SDS011;55064;49.636;12.164;2024-01-16T01:51:48;9.85;;;2.90;;
68247;SDS011;55064;49.636;12.164;2024-01-16T01:54:14;10.63;;;2.55;;
68247;SDS011;55064;49.636;12.164;2024-01-16T01:56:44;9.43;;;3.22;;
68247;SDS011;55064;49.636;12.164;2024-01-16T01:59:11;9.40;;;2.70;;
68247;SDS011;55064;49.636;12.164;2024-01-16T02:01:38;5.30;;;1.77;;
68247;SDS011;55064;49.636;12.164;2024-01-16T02:04:04;9.63;;;2.90;;
68247;SDS011;55064;49.636;12.164;2024-01-16T02:06:31;8.95;;;3.10;;
68247;SDS011;55064;49.636;12.164;2024-01-16T02:08:57;6.97;;;2.10;;
68247;SDS011;55064;49.636;12.164;2024-01-16T02:11:24;11.23;;;2.93;;
68247;SDS011;55064;49.636;12.164;2024-01-16T02:13:49;9.05;;;2.90;;
68247;SDS011;55064;49.636;12.164;2024-01-16T02:16:21;7.40;;;2.77;;
68247;SDS011;55064;49.636;12.164;2024-01-16T02:18:49;9.57;;;2.90;;
68247;SDS011;55064;49.636;12.164;2024-01-16T02:21:16;6.07;;;2.22;;
68247;SDS011;55064;49.636;12.164;2024-01-16T02:23:45;7.88;;;2.40;;
68247;SDS011;55064;49.636;12.164;2024-01-16T02:26:11;8.40;;;2.70;;
68247;SDS011;55064;49.636;12.164;2024-01-16T02:28:37;10.52;;;2.60;;
68247;SDS011;55064;49.636;12.164;2024-01-16T02:31:02;8.10;;;2.20;;
68247;SDS011;55064;49.636;12.164;2024-01-16T02:33:28;10.33;;;2.50;;
68247;SDS011;55064;49.636;12.164;2024-01-16T02:35:53;8.53;;;2.57;;
68247;SDS011;55064;49.636;12.164;2024-01-16T02:38:18;6.63;;;2.33;;
68247;SDS011;55064;49.636;12.164;2024-01-16T02:40:44;10.00;;;2.83;;
68247;SDS011;55064;49.636;12.164;2024-01-16T02:43:09;6.00;;;2.10;;
68247;SDS011;55064;49.636;12.164;2024-01-16T02:45:35;6.97;;;2.40;;
68247;SDS011;55064;49.636;12.164;2024-01-16T02:48:00;8.20;;;2.40;;
68247;SDS011;55064;49.636;12.164;2024-01-16T02:50:26;7.73;;;2.40;;
68247;SDS011;55064;49.636;12.164;2024-01-16T02:52:52;9.60;;;2.47;;
68247;SDS011;55064;49.636;12.164;2024-01-16T02:55:17;8.27;;;2.20;;
68247;SDS011;55064;49.636;12.164;2024-01-16T02:57:42;7.60;;;2.30;;
68247;SDS011;55064;49.636;12.164;2024-01-16T03:00:08;8.17;;;2.67;;
68247;SDS011;55064;49.636;12.164;2024-01-16T03:02:34;7.50;;;2.53;;
68247;SDS011;55064;49.636;12.164;2024-01-16T03:04:59;8.33;;;2.40;;
68247;SDS011;55064;49.636;12.164;2024-01-16T03:07:24;9.17;;;2.67;;
68247;SDS011;55064;49.636;12.164;2024-01-16T03:09:50;9.97;;;2.03;;
68247;SDS011;55064;49.636;12.164;2024-01-16T03:12:16;9.27;;;2.63;;
68247;SDS011;55064;49.636;12.164;2024-01-16T03:14:41;7.37;;;2.63;;
68247;SDS011;55064;49.636;12.164;2024-01-16T03:17:06;9.07;;;2.53;;
68247;SDS011;55064;49.636;12.164;2024-01-16T03:19:32;8.90;;;2.93;;
68247;SDS011;55064;49.636;12.164;2024-01-16T03:21:57;9.13;;;3.03;;
68247;SDS011;55064;49.636;12.164;2024-01-16T03:24:22;7.73;;;2.67;;
68247;SDS011;55064;49.636;12.164;2024-01-16T03:26:48;8.37;;;2.80;;
68247;SDS011;55064;49.636;12.164;2024-01-16T03:29:13;7.40;;;2.50;;
68247;SDS011;55064;49.636;12.164;2024-01-16T03:31:39;9.40;;;2.50;;
68247;SDS011;55064;49.636;12.164;2024-01-16T03:34:04;10.63;;;2.40;;
68247;SDS011;55064;49.636;12.164;2024-01-16T03:36:29;11.43;;;3.03;;
68247;SDS011;55064;49.636;12.164;2024-01-16T03:38:55;10.57;;;2.57;;
68247;SDS011;55064;49.636;12.164;2024-01-16T03:41:20;8.77;;;2.63;;
68247;SDS011;55064;49.636;12.164;2024-01-16T03:43:46;8.80;;;2.28;;
68247;SDS011;55064;49.636;12.164;2024-01-16T03:46:11;7.57;;;2.17;;
68247;SDS011;55064;49.636;12.164;2024-01-16T03:48:36;7.73;;;2.23;;
68247;SDS011;55064;49.636;12.164;2024-01-16T03:51:02;12.90;;;3.13;;
68247;SDS011;55064;49.636;12.164;2024-01-16T03:53:27;9.20;;;3.08;;
68247;SDS011;55064;49.636;12.164;2024-01-16T03:55:53;12.60;;;2.47;;
68247;SDS011;55064;49.636;12.164;2024-01-16T03:58:18;7.80;;;2.40;;
68247;SDS011;55064;49.636;12.164;2024-01-16T04:00:44;9.50;;;2.30;;
68247;SDS011;55064;49.636;12.164;2024-01-16T04:03:09;8.95;;;2.78;;
68247;SDS011;55064;49.636;12.164;2024-01-16T04:05:35;8.03;;;2.43;;
68247;SDS011;55064;49.636;12.164;2024-01-16T04:08:00;9.40;;;2.93;;
68247;SDS011;55064;49.636;12.164;2024-01-16T04:10:25;7.73;;;2.00;;
68247;SDS011;55064;49.636;12.164;2024-01-16T04:12:51;9.02;;;2.88;;
68247;SDS011;55064;49.636;12.164;2024-01-16T04:15:16;8.07;;;2.60;;
68247;SDS011;55064;49.636;12.164;2024-01-16T04:17:42;8.20;;;2.70;;
68247;SDS011;55064;49.636;12.164;2024-01-16T04:20:07;8.80;;;2.50;;
68247;SDS011;55064;49.636;12.164;2024-01-16T04:22:34;8.07;;;2.63;;
68247;SDS011;55064;49.636;12.164;2024-01-16T04:24:59;7.95;;;2.30;;
68247;SDS011;55064;49.636;12.164;2024-01-16T04:27:25;9.37;;;2.97;;
68247;SDS011;55064;49.636;12.164;2024-01-16T04:29:50;8.67;;;2.53;;
68247;SDS011;55064;49.636;12.164;2024-01-16T04:32:16;6.95;;;2.40;;
68247;SDS011;55064;49.636;12.164;2024-01-16T04:34:41;7.50;;;2.70;;
68247;SDS011;55064;49.636;12.164;2024-01-16T04:37:07;9.47;;;2.63;;
68247;SDS011;55064;49.636;12.164;2024-01-16T04:39:32;11.77;;;2.83;;
68247;SDS011;55064;49.636;12.164;2024-01-16T04:41:57;10.83;;;3.07;;
68247;SDS011;55064;49.636;12.164;2024-01-16T04:44:23;9.57;;;3.10;;
68247;SDS011;55064;49.636;12.164;2024-01-16T04:46:48;8.50;;;2.77;;
68247;SDS011;55064;49.636;12.164;2024-01-16T04:49:14;10.13;;;2.87;;
68247;SDS011;55064;49.636;12.164;2024-01-16T04:51:39;9.67;;;2.57;;
68247;SDS011;55064;49.636;12.164;2024-01-16T04:54:05;10.17;;;2.70;;
68247;SDS011;55064;49.636;12.164;2024-01-16T04:56:30;8.23;;;2.70;;
68247;SDS011;55064;49.636;12.164;2024-01-16T04:58:55;9.55;;;2.53;;
68247;SDS011;55064;49.636;12.164;2024-01-16T05:01:21;7.53;;;2.60;;
68247;SDS011;55064;49.636;12.164;2024-01-16T05:03:46;8.10;;;2.90;;
68247;SDS011;55064;49.636;12.164;2024-01-16T05:06:12;8.53;;;2.80;;
68247;SDS011;55064;49.636;12.164;2024-01-16T05:08:41;10.07;;;2.55;;
68247;SDS011;55064;49.636;12.164;2024-01-16T05:11:06;8.48;;;2.97;;
68247;SDS011;55064;49.636;12.164;2024-01-16T05:13:32;9.20;;;2.90;;
68247;SDS011;55064;49.636;12.164;2024-01-16T05:15:57;8.13;;;2.70;;
68247;SDS011;55064;49.636;12.164;2024-01-16T05:18:23;6.83;;;2.50;;
68247;SDS011;55064;49.636;12.164;2024-01-16T05:20:48;8.90;;;2.70;;
68247;SDS011;55064;49.636;12.164;2024-01-16T05:23:13;9.10;;;2.83;;
68247;SDS011;55064;49.636;12.164;2024-01-16T05:25:39;13.23;;;2.87;;
68247;SDS011;55064;49.636;12.164;2024-01-16T05:28:04;12.47;;;2.80;;
68247;SDS011;55064;49.636;12.164;2024-01-16T05:30:30;9.67;;;2.80;;
68247;SDS011;55064;49.636;12.164;2024-01-16T05:32:55;7.75;;;2.60;;
68247;SDS011;55064;49.636;12.164;2024-01-16T05:35:21;7.97;;;2.90;;
68247;SDS011;55064;49.636;12.164;2024-01-16T05:37:46;8.60;;;3.10;;
68247;SDS011;55064;49.636;12.164;2024-01-16T05:40:12;8.55;;;2.78;;
68247;SDS011;55064;49.636;12.164;2024-01-16T05:42:38;9.53;;;3.43;;
68247;SDS011;55064;49.636;12.164;2024-01-16T05:45:03;11.63;;;3.20;;
68247;SDS011;55064;49.636;12.164;2024-01-16T05:47:29;6.78;;;2.35;;
68247;SDS011;55064;49.636;12.164;2024-01-16T05:49:55;9.65;;;3.00;;
68247;SDS011;55064;49.636;12.164;2024-01-16T05:52:21;8.90;;;3.40;;
68247;SDS011;55064;49.636;12.164;2024-01-16T05:54:47;11.55;;;3.70;;
68247;SDS011;55064;49.636;12.164;2024-01-16T05:57:12;8.33;;;3.10;;
68247;SDS011;55064;49.636;12.164;2024-01-16T05:59:38;10.00;;;2.93;;
68247;SDS011;55064;49.636;12.164;2024-01-16T06:02:03;10.40;;;3.33;;
68247;SDS011;55064;49.636;12.164;2024-01-16T06:04:29;8.82;;;3.28;;
68247;SDS011;55064;49.636;12.164;2024-01-16T06:06:54;8.87;;;3.50;;
68247;SDS011;55064;49.636;12.164;2024-01-16T06:09:19;9.60;;;3.20;;
68247;SDS011;55064;49.636;12.164;2024-01-16T06:11:45;10.03;;;3.57;;
68247;SDS011;55064;49.636;12.164;2024-01-16T06:14:10;12.52;;;3.63;;
68247;SDS011;55064;49.636;12.164;2024-01-16T06:16:37;10.53;;;3.43;;
68247;SDS011;55064;49.636;12.164;2024-01-16T06:19:02;9.68;;;3.22;;
68247;SDS011;55064;49.636;12.164;2024-01-16T06:21:28;11.70;;;3.37;;
68247;SDS011;55064;49.636;12.164;2024-01-16T06:23:54;9.63;;;3.50;;
68247;SDS011;55064;49.636;12.164;2024-01-16T06:26:19;9.37;;;3.33;;
68247;SDS011;55064;49.636;12.164;2024-01-16T06:28:44;11.33;;;3.47;;
68247;SDS011;55064;49.636;12.164;2024-01-16T06:31:10;11.17;;;3.33;;
68247;SDS011;55064;49.636;12.164;2024-01-16T06:33:36;11.82;;;3.08;;
68247;SDS011;55064;49.636;12.164;2024-01-16T06:36:02;8.40;;;3.27;;
68247;SDS011;55064;49.636;12.164;2024-01-16T06:38:31;9.55;;;3.75;;
68247;SDS011;55064;49.636;12.164;2024-01-16T06:40:57;10.80;;;3.37;;
68247;SDS011;55064;49.636;12.164;2024-01-16T06:43:23;10.43;;;3.25;;
68247;SDS011;55064;49.636;12.164;2024-01-16T06:45:49;11.32;;;3.58;;
68247;SDS011;55064;49.636;12.164;2024-01-16T06:48:14;10.27;;;3.40;;
68247;SDS011;55064;49.636;12.164;2024-01-16T06:50:40;11.77;;;4.35;;
68247;SDS011;55064;49.636;12.164;2024-01-16T06:53:06;10.03;;;3.60;;
68247;SDS011;55064;49.636;12.164;2024-01-16T06:55:31;12.63;;;3.90;;
68247;SDS011;55064;49.636;12.164;2024-01-16T06:57:57;11.33;;;3.63;;
68247;SDS011;55064;49.636;12.164;2024-01-16T07:00:22;10.63;;;3.50;;
68247;SDS011;55064;49.636;12.164;2024-01-16T07:02:50;9.15;;;3.55;;
68247;SDS011;55064;49.636;12.164;2024-01-16T07:05:16;11.97;;;3.57;;
68247;SDS011;55064;49.636;12.164;2024-01-16T07:07:42;13.05;;;3.40;;
68247;SDS011;55064;49.636;12.164;2024-01-16T07:10:07;10.70;;;3.97;;
68247;SDS011;55064;49.636;12.164;2024-01-16T07:12:38;9.90;;;3.70;;
68247;SDS011;55064;49.636;12.164;2024-01-16T07:15:03;11.20;;;3.80;;
68247;SDS011;55064;49.636;12.164;2024-01-16T07:17:29;12.60;;;4.15;;
68247;SDS011;55064;49.636;12.164;2024-01-16T07:19:56;11.77;;;4.23;;
68247;SDS011;55064;49.636;12.164;2024-01-16T07:22:21;12.02;;;4.45;;
68247;SDS011;55064;49.636;12.164;2024-01-16T07:24:47;14.40;;;4.20;;
68247;SDS011;55064;49.636;12.164;2024-01-16T07:27:13;12.90;;;4.00;;
68247;SDS011;55064;49.636;12.164;2024-01-16T07:29:38;11.77;;;4.47;;
68247;SDS011;55064;49.636;12.164;2024-01-16T07:32:04;14.77;;;4.77;;
68247;SDS011;55064;49.636;12.164;2024-01-16T07:34:30;16.02;;;5.40;;
68247;SDS011;55064;49.636;12.164;2024-01-16T07:36:55;19.23;;;7.00;;
68247;SDS011;55064;49.636;12.164;2024-01-16T07:39:20;13.90;;;5.10;;
68247;SDS011;55064;49.636;12.164;2024-01-16T07:41:47;11.82;;;4.38;;
68247;SDS011;55064;49.636;12.164;2024-01-16T07:44:13;10.60;;;4.10;;
68247;SDS011;55064;49.636;12.164;2024-01-16T07:46:38;10.37;;;4.03;;
68247;SDS011;55064;49.636;12.164;2024-01-16T07:49:04;11.93;;;4.20;;
68247;SDS011;55064;49.636;12.164;2024-01-16T07:51:29;11.87;;;4.23;;
68247;SDS011;55064;49.636;12.164;2024-01-16T07:54:04;11.97;;;4.50;;
68247;SDS011;55064;49.636;12.164;2024-01-16T07:56:31;11.18;;;4.30;;
68247;SDS011;55064;49.636;12.164;2024-01-16T07:58:57;11.00;;;3.87;;
68247;SDS011;55064;49.636;12.164;2024-01-16T08:01:22;12.20;;;4.03;;
68247;SDS011;55064;49.636;12.164;2024-01-16T08:03:47;12.67;;;4.00;;
68247;SDS011;55064;49.636;12.164;2024-01-16T08:06:13;13.23;;;4.67;;
68247;SDS011;55064;49.636;12.164;2024-01-16T08:08:39;12.05;;;4.30;;
68247;SDS011;55064;49.636;12.164;2024-01-16T08:11:04;14.17;;;4.10;;
68247;SDS011;55064;49.636;12.164;2024-01-16T08:13:29;12.67;;;4.57;;
68247;SDS011;55064;49.636;12.164;2024-01-16T08:15:55;12.73;;;4.22;;
68247;SDS011;55064;49.636;12.164;2024-01-16T08:18:20;11.57;;;4.27;;
68247;SDS011;55064;49.636;12.164;2024-01-16T08:20:45;12.43;;;4.17;;
68247;SDS011;55064;49.636;12.164;2024-01-16T08:23:11;12.80;;;4.60;;
68247;SDS011;55064;49.636;12.164;2024-01-16T08:25:37;15.13;;;4.47;;
68247;SDS011;55064;49.636;12.164;2024-01-16T08:28:03;11.35;;;4.03;;
68247;SDS011;55064;49.636;12.164;2024-01-16T08:30:29;9.85;;;3.97;;
68247;SDS011;55064;49.636;12.164;2024-01-16T08:32:54;12.90;;;4.40;;
68247;SDS011;55064;49.636;12.164;2024-01-16T08:35:20;11.10;;;4.20;;
68247;SDS011;55064;49.636;12.164;2024-01-16T08:37:45;13.03;;;4.77;;
68247;SDS011;55064;49.636;12.164;2024-01-16T08:40:11;12.65;;;4.68;;
68247;SDS011;55064;49.636;12.164;2024-01-16T08:42:37;14.63;;;4.03;;
68247;SDS011;55064;49.636;12.164;2024-01-16T08:45:02;10.70;;;4.27;;
68247;SDS011;55064;49.636;12.164;2024-01-16T08:47:28;10.68;;;3.95;;
68247;SDS011;55064;49.636;12.164;2024-01-16T08:49:53;11.17;;;4.20;;
68247;SDS011;55064;49.636;12.164;2024-01-16T08:52:19;14.13;;;4.07;;
68247;SDS011;55064;49.636;12.164;2024-01-16T08:54:44;13.90;;;4.33;;
68247;SDS011;55064;49.636;12.164;2024-01-16T08:57:09;17.10;;;4.90;;
68247;SDS011;55064;49.636;12.164;2024-01-16T08:59:35;13.75;;;4.50;;
68247;SDS011;55064;49.636;12.164;2024-01-16T09:02:01;13.83;;;4.70;;
68247;SDS011;55064;49.636;12.164;2024-01-16T09:04:26;12.73;;;4.67;;
68247;SDS011;55064;49.636;12.164;2024-01-16T09:06:51;12.03;;;4.73;;
68247;SDS011;55064;49.636;12.164;2024-01-16T09:09:17;14.95;;;5.10;;
68247;SDS011;55064;49.636;12.164;2024-01-16T09:11:42;13.73;;;4.83;;
68247;SDS011;55064;49.636;12.164;2024-01-16T09:14:08;12.07;;;4.50;;
68247;SDS011;55064;49.636;12.164;2024-01-16T09:16:34;10.52;;;4.30;;
68247;SDS011;55064;49.636;12.164;2024-01-16T09:18:59;11.50;;;4.30;;
68247;SDS011;55064;49.636;12.164;2024-01-16T09:21:24;13.57;;;5.00;;
68247;SDS011;55064;49.636;12.164;2024-01-16T09:23:50;11.25;;;4.07;;
68247;SDS011;55064;49.636;12.164;2024-01-16T09:26:15;11.90;;;4.13;;
68247;SDS011;55064;49.636;12.164;2024-01-16T09:28:42;14.57;;;4.47;;
68247;SDS011;55064;49.636;12.164;2024-01-16T09:31:07;11.73;;;4.40;;
68247;SDS011;55064;49.636;12.164;2024-01-16T09:33:33;14.33;;;5.03;;
68247;SDS011;55064;49.636;12.164;2024-01-16T09:35:59;13.18;;;4.82;;
68247;SDS011;55064;49.636;12.164;2024-01-16T09:38:24;12.93;;;4.47;;
68247;SDS011;55064;49.636;12.164;2024-01-16T09:40:50;12.53;;;5.27;;
68247;SDS011;55064;49.636;12.164;2024-01-16T09:43:17;14.10;;;4.95;;
68247;SDS011;55064;49.636;12.164;2024-01-16T09:45:45;14.15;;;5.40;;
68247;SDS011;55064;49.636;12.164;2024-01-16T09:48:13;13.68;;;5.22;;
68247;SDS011;55064;49.636;12.164;2024-01-16T09:50:39;12.40;;;4.68;;
68247;SDS011;55064;49.636;12.164;2024-01-16T09:53:05;11.27;;;4.70;;
68247;SDS011;55064;49.636;12.164;2024-01-16T09:55:30;12.20;;;4.70;;
68247;SDS011;55064;49.636;12.164;2024-01-16T09:57:56;13.20;;;4.60;;
68247;SDS011;55064;49.636;12.164;2024-01-16T10:00:22;12.55;;;4.75;;
68247;SDS011;55064;49.636;12.164;2024-01-16T10:02:49;13.85;;;4.18;;
68247;SDS011;55064;49.636;12.164;2024-01-16T10:05:15;14.00;;;4.47;;
68247;SDS011;55064;49.636;12.164;2024-01-16T10:07:41;12.07;;;4.63;;
68247;SDS011;55064;49.636;12.164;2024-01-16T10:10:10;12.10;;;4.45;;
68247;SDS011;55064;49.636;12.164;2024-01-16T10:12:36;11.88;;;4.40;;
68247;SDS011;55064;49.636;12.164;2024-01-16T10:15:02;9.90;;;4.07;;
68247;SDS011;55064;49.636;12.164;2024-01-16T10:17:40;12.37;;;3.90;;
68247;SDS011;55064;49.636;12.164;2024-01-16T10:20:07;11.30;;;4.38;;
68247;SDS011;55064;49.636;12.164;2024-01-16T10:22:52;11.05;;;4.30;;
68247;SDS011;55064;49.636;12.164;2024-01-16T10:25:18;12.15;;;4.53;;
68247;SDS011;55064;49.636;12.164;2024-01-16T10:27:46;13.50;;;4.35;;
68247;SDS011;55064;49.636;12.164;2024-01-16T10:30:12;11.27;;;4.20;;
68247;SDS011;55064;49.636;12.164;2024-01-16T10:32:38;14.15;;;5.18;;
68247;SDS011;55064;49.636;12.164;2024-01-16T10:35:05;12.93;;;5.13;;
68247;SDS011;55064;49.636;12.164;2024-01-16T10:40:14;15.98;;;4.65;;
68247;SDS011;55064;49.636;12.164;2024-01-16T10:42:40;9.23;;;3.60;;
68247;SDS011;55064;49.636;12.164;2024-01-16T10:45:06;12.97;;;4.40;;
68247;SDS011;55064;49.636;12.164;2024-01-16T10:47:31;10.87;;;4.10;;
68247;SDS011;55064;49.636;12.164;2024-01-16T10:50:02;12.18;;;4.10;;
68247;SDS011;55064;49.636;12.164;2024-01-16T10:52:32;9.63;;;3.80;;
68247;SDS011;55064;49.636;12.164;2024-01-16T10:54:58;11.07;;;3.67;;
68247;SDS011;55064;49.636;12.164;2024-01-16T10:57:29;11.02;;;3.90;;
68247;SDS011;55064;49.636;12.164;2024-01-16T11:00:00;10.37;;;3.70;;
68247;SDS011;55064;49.636;12.164;2024-01-16T11:03:19;10.38;;;3.72;;
68247;SDS011;55064;49.636;12.164;2024-01-16T11:05:29;11.77;;;3.88;;
68247;SDS011;55064;49.636;12.164;2024-01-16T11:07:58;7.97;;;3.30;;
68247;SDS011;55064;49.636;12.164;2024-01-16T11:10:24;10.77;;;3.50;;
68247;SDS011;55064;49.636;12.164;2024-01-16T11:12:50;11.57;;;3.50;;
68247;SDS011;55064;49.636;12.164;2024-01-16T11:15:17;10.32;;;3.40;;
68247;SDS011;55064;49.636;12.164;2024-01-16T11:17:44;10.38;;;3.58;;
68247;SDS011;55064;49.636;12.164;2024-01-16T11:20:10;11.03;;;3.50;;
68247;SDS011;55064;49.636;12.164;2024-01-16T11:22:41;12.40;;;4.05;;
68247;SDS011;55064;49.636;12.164;2024-01-16T11:25:12;10.38;;;3.17;;
68247;SDS011;55064;49.636;12.164;2024-01-16T11:27:41;9.90;;;3.35;;
68247;SDS011;55064;49.636;12.164;2024-01-16T11:30:11;10.95;;;3.55;;
68247;SDS011;55064;49.636;12.164;2024-01-16T11:32:37;9.23;;;3.40;;
68247;SDS011;55064;49.636;12.164;2024-01-16T11:35:05;8.73;;;3.35;;
68247;SDS011;55064;49.636;12.164;2024-01-16T11:37:34;12.75;;;3.80;;
68247;SDS011;55064;49.636;12.164;2024-01-16T11:42:47;11.85;;;4.38;;
68247;SDS011;55064;49.636;12.164;2024-01-16T11:48:09;8.40;;;3.00;;
68247;SDS011;55064;49.636;12.164;2024-01-16T11:50:39;11.18;;;3.50;;
68247;SDS011;55064;49.636;12.164;2024-01-16T11:53:05;9.55;;;3.03;;
68247;SDS011;55064;49.636;12.164;2024-01-16T11:55:31;12.02;;;3.70;;
68247;SDS011;55064;49.636;12.164;2024-01-16T12:01:02;9.80;;;3.78;;
68247;SDS011;55064;49.636;12.164;2024-01-16T12:03:30;8.48;;;2.78;;
68247;SDS011;55064;49.636;12.164;2024-01-16T12:05:59;12.27;;;3.70;;
68247;SDS011;55064;49.636;12.164;2024-01-16T12:08:25;8.55;;;3.13;;
68247;SDS011;55064;49.636;12.164;2024-01-16T12:10:51;11.32;;;3.58;;
68247;SDS011;55064;49.636;12.164;2024-01-16T12:13:17;9.02;;;3.35;;
68247;SDS011;55064;49.636;12.164;2024-01-16T12:15:43;10.43;;;3.33;;
68247;SDS011;55064;49.636;12.164;2024-01-16T12:18:08;9.50;;;3.60;;
68247;SDS011;55064;49.636;12.164;2024-01-16T12:20:35;12.48;;;3.63;;
68247;SDS011;55064;49.636;12.164;2024-01-16T12:23:05;11.10;;;3.58;;
68247;SDS011;55064;49.636;12.164;2024-01-16T12:25:33;11.98;;;4.10;;
68247;SDS011;55064;49.636;12.164;2024-01-16T12:28:00;14.00;;;4.13;;
68247;SDS011;55064;49.636;12.164;2024-01-16T12:30:27;9.90;;;3.78;;
68247;SDS011;55064;49.636;12.164;2024-01-16T12:33:29;12.25;;;3.78;;
68247;SDS011;55064;49.636;12.164;2024-01-16T12:35:47;12.15;;;4.30;;
68247;SDS011;55064;49.636;12.164;2024-01-16T12:38:13;12.87;;;4.80;;
68247;SDS011;55064;49.636;12.164;2024-01-16T12:40:49;12.15;;;4.20;;
68247;SDS011;55064;49.636;12.164;2024-01-16T12:43:16;12.07;;;4.35;;
68247;SDS011;55064;49.636;12.164;2024-01-16T12:45:43;13.10;;;4.25;;
68247;SDS011;55064;49.636;12.164;2024-01-16T12:48:09;13.17;;;3.97;;
68247;SDS011;55064;49.636;12.164;2024-01-16T12:50:35;11.70;;;4.22;;
68247;SDS011;55064;49.636;12.164;2024-01-16T12:53:08;11.68;;;4.13;;
68247;SDS011;55064;49.636;12.164;2024-01-16T12:55:39;12.80;;;3.92;;
68247;SDS011;55064;49.636;12.164;2024-01-16T12:58:38;12.97;;;3.83;;
68247;SDS011;55064;49.636;12.164;2024-01-16T13:03:49;15.02;;;5.15;;
68247;SDS011;55064;49.636;12.164;2024-01-16T13:06:19;11.32;;;4.20;;
68247;SDS011;55064;49.636;12.164;2024-01-16T13:08:50;11.63;;;4.20;;
68247;SDS011;55064;49.636;12.164;2024-01-16T13:11:16;14.80;;;4.83;;
68247;SDS011;55064;49.636;12.164;2024-01-16T13:13:48;12.00;;;4.88;;
68247;SDS011;55064;49.636;12.164;2024-01-16T13:16:14;11.18;;;4.75;;
68247;SDS011;55064;49.636;12.164;2024-01-16T13:18:41;12.25;;;5.00;;
68247;SDS011;55064;49.636;12.164;2024-01-16T13:21:06;14.10;;;4.83;;
68247;SDS011;55064;49.636;12.164;2024-01-16T13:23:31;12.27;;;4.60;;
68247;SDS011;55064;49.636;12.164;2024-01-16T13:25:57;12.73;;;4.67;;
68247;SDS011;55064;49.636;12.164;2024-01-16T13:28:25;12.38;;;4.97;;
68247;SDS011;55064;49.636;12.164;2024-01-16T13:30:52;12.27;;;4.45;;
68247;SDS011;55064;49.636;12.164;2024-01-16T13:33:17;10.50;;;4.10;;
68247;SDS011;55064;49.636;12.164;2024-01-16T13:35:43;10.88;;;4.20;;
68247;SDS011;55064;49.636;12.164;2024-01-16T13:38:11;13.80;;;4.70;;
68247;SDS011;55064;49.636;12.164;2024-01-16T13:40:38;10.07;;;4.30;;
68247;SDS011;55064;49.636;12.164;2024-01-16T13:43:03;11.53;;;4.13;;
68247;SDS011;55064;49.636;12.164;2024-01-16T13:45:29;10.55;;;4.10;;
68247;SDS011;55064;49.636;12.164;2024-01-16T13:47:55;10.18;;;4.25;;
68247;SDS011;55064;49.636;12.164;2024-01-16T13:50:21;11.53;;;3.80;;
68247;SDS011;55064;49.636;12.164;2024-01-16T13:52:47;9.23;;;3.80;;
68247;SDS011;55064;49.636;12.164;2024-01-16T13:55:12;9.90;;;3.60;;
68247;SDS011;55064;49.636;12.164;2024-01-16T13:57:38;11.88;;;3.85;;
68247;SDS011;55064;49.636;12.164;2024-01-16T14:00:04;10.00;;;3.43;;
68247;SDS011;55064;49.636;12.164;2024-01-16T14:02:31;10.55;;;3.65;;
68247;SDS011;55064;49.636;12.164;2024-01-16T14:04:56;13.60;;;3.73;;
68247;SDS011;55064;49.636;12.164;2024-01-16T14:07:22;10.37;;;3.50;;
68247;SDS011;55064;49.636;12.164;2024-01-16T14:09:47;10.87;;;3.40;;
68247;SDS011;55064;49.636;12.164;2024-01-16T14:12:13;9.33;;;3.50;;
68247;SDS011;55064;49.636;12.164;2024-01-16T14:14:38;12.40;;;3.28;;
68247;SDS011;55064;49.636;12.164;2024-01-16T14:17:06;12.25;;;3.80;;
68247;SDS011;55064;49.636;12.164;2024-01-16T14:19:31;12.10;;;4.00;;
68247;SDS011;55064;49.636;12.164;2024-01-16T14:21:56;10.07;;;3.50;;
68247;SDS011;55064;49.636;12.164;2024-01-16T14:24:22;9.30;;;3.20;;
68247;SDS011;55064;49.636;12.164;2024-01-16T14:26:47;9.73;;;3.80;;
68247;SDS011;55064;49.636;12.164;2024-01-16T14:29:13;9.17;;;3.60;;
68247;SDS011;55064;49.636;12.164;2024-01-16T14:31:39;13.35;;;3.95;;
68247;SDS011;55064;49.636;12.164;2024-01-16T14:34:09;15.43;;;4.77;;